Time;durP1;ratioP1;P1;durP2;ratioP2;P2;SDS_P1;SDS_P2;PMS_P1;PMS_P2;Temp;Humidity;BMP_temperature;BMP_pressure;BME280_temperature;BME280_humidity;BME280_pressure;Samples;Min_cycle;Max_cycle;Signal;HPM_P1;HPM_P2
2024/04/01 00:00:58;;;;;;;5.37;1.00;;;;;;;10.79;100.00;93685.34;5039494;28;20217;-88
2024/04/01 00:03:25;;;;;;;3.93;1.17;;;;;;;10.75;100.00;93676.41;5040686;28;20194;-87
2024/04/01 00:05:53;;;;;;;4.90;1.10;;;;;;;10.70;100.00;93673.78;5039013;28;20190;-87
2024/04/01 00:08:21;;;;;;;4.87;1.40;;;;;;;10.90;100.00;93668.47;5041200;28;20229;-87
2024/04/01 00:10:47;;;;;;;5.73;1.50;;;;;;;10.96;100.00;93670.06;5041146;28;20190;-88
2024/04/01 00:13:15;;;;;;;4.47;0.93;;;;;;;10.99;100.00;93666.88;5038951;28;20198;-88
2024/04/01 00:15:41;;;;;;;6.10;1.40;;;;;;;11.02;100.00;93674.25;5038933;28;20225;-88
2024/04/01 00:18:08;;;;;;;3.60;1.10;;;;;;;10.98;100.00;93659.25;5040012;28;20214;-87
2024/04/01 00:20:34;;;;;;;4.53;1.33;;;;;;;10.92;100.00;93678.75;5039711;28;20217;-88
2024/04/01 00:23:00;;;;;;;3.43;1.13;;;;;;;10.85;100.00;93657.94;5040192;28;20551;-88
2024/04/01 00:25:26;;;;;;;4.77;1.60;;;;;;;10.97;100.00;93657.66;5040059;28;20607;-87
2024/04/01 00:27:53;;;;;;;7.57;1.43;;;;;;;10.94;100.00;93661.63;5039904;28;20222;-88
2024/04/01 00:30:20;;;;;;;3.80;0.80;;;;;;;10.87;100.00;93649.81;5040247;28;20269;-88
2024/04/01 00:32:47;;;;;;;2.17;0.97;;;;;;;10.85;100.00;93651.91;5042441;28;20198;-88
2024/04/01 00:35:15;;;;;;;4.70;0.83;;;;;;;10.93;100.00;93644.25;5039728;28;20202;-86
2024/04/01 00:37:42;;;;;;;2.20;0.90;;;;;;;10.81;100.00;93632.41;5040402;28;20573;-87
2024/04/01 00:40:08;;;;;;;2.10;0.50;;;;;;;10.75;100.00;93625.59;5042237;28;20213;-88
2024/04/01 00:42:35;;;;;;;5.93;0.93;;;;;;;10.78;100.00;93617.19;5040973;28;20202;-88
2024/04/01 00:45:00;;;;;;;3.93;0.70;;;;;;;10.74;100.00;93613.47;5041175;28;20225;-88
2024/04/01 00:47:29;;;;;;;0.77;0.40;;;;;;;10.58;100.00;93607.47;5040864;28;20222;-88
2024/04/01 00:49:54;;;;;;;1.73;0.70;;;;;;;10.67;100.00;93597.19;5041253;28;20225;-88
2024/04/01 00:52:22;;;;;;;6.80;0.83;;;;;;;10.82;100.00;93592.66;5042832;28;20194;-88
2024/04/01 00:54:47;;;;;;;3.03;0.97;;;;;;;10.71;100.00;93588.47;5053007;28;20198;-86
2024/04/01 00:57:14;;;;;;;4.03;0.80;;;;;;;10.62;100.00;93586.69;5049918;28;20582;-88
2024/04/01 00:59:40;;;;;;;2.93;0.73;;;;;;;10.62;100.00;93581.41;5039301;28;20563;-87
2024/04/01 01:02:07;;;;;;;2.80;0.50;;;;;;;10.83;100.00;93586.34;5038868;28;20194;-87
2024/04/01 01:04:34;;;;;;;1.43;0.60;;;;;;;10.74;100.00;93581.88;5039847;28;20174;-87
2024/04/01 01:07:01;;;;;;;4.13;0.70;;;;;;;10.75;100.00;93557.94;5039430;28;20242;-88
2024/04/01 01:09:27;;;;;;;2.33;0.57;;;;;;;10.77;100.00;93542.66;5042229;28;20236;-88
2024/04/01 01:11:55;;;;;;;1.03;0.70;;;;;;;10.70;100.00;93533.47;5039880;28;20202;-87
2024/04/01 01:14:21;;;;;;;3.50;0.87;;;;;;;10.47;100.00;93521.72;5039612;28;20252;-88
2024/04/01 01:16:47;;;;;;;2.17;0.90;;;;;;;10.51;100.00;93540.38;5040363;28;20218;-88
2024/04/01 01:19:13;;;;;;;3.67;0.67;;;;;;;10.41;100.00;93546.44;5042296;28;20195;-87
2024/04/01 01:21:41;;;;;;;2.53;0.70;;;;;;;10.40;100.00;93545.69;5040424;28;20194;-88
2024/04/01 01:24:09;;;;;;;3.03;0.87;;;;;;;10.26;100.00;93549.91;5039640;28;20194;-88
2024/04/01 01:26:35;;;;;;;1.80;0.50;;;;;;;10.29;100.00;93562.53;5038590;28;20281;-88
2024/04/01 01:29:01;;;;;;;2.27;0.60;;;;;;;10.27;100.00;93563.84;5040239;28;20199;-88
2024/04/01 01:31:28;;;;;;;1.37;0.47;;;;;;;10.23;100.00;93571.50;5039394;28;20202;-88
2024/04/01 01:33:54;;;;;;;1.73;0.93;;;;;;;10.22;100.00;93579.66;5038102;28;20209;-88
2024/04/01 01:36:21;;;;;;;3.23;0.77;;;;;;;10.26;100.00;93570.16;5038783;28;20682;-88
2024/04/01 01:38:46;;;;;;;1.13;0.50;;;;;;;10.15;100.00;93556.22;5040800;28;20559;-88
2024/04/01 01:41:15;;;;;;;1.93;0.70;;;;;;;10.13;100.00;93550.44;5040609;28;20208;-88
2024/04/01 01:43:40;;;;;;;1.00;0.40;;;;;;;10.07;100.00;93542.81;5038524;28;20667;-88
2024/04/01 01:46:07;;;;;;;1.97;0.70;;;;;;;10.09;100.00;93544.13;5039066;28;20216;-87
2024/04/01 01:48:33;;;;;;;0.60;0.33;;;;;;;10.04;100.00;93524.91;5041457;28;20214;-87
2024/04/01 01:51:00;;;;;;;2.10;0.77;;;;;;;10.05;100.00;93522.03;5040611;28;20216;-87
2024/04/01 01:53:25;;;;;;;4.67;0.93;;;;;;;9.87;100.00;93535.72;5039147;28;20198;-87
2024/04/01 01:55:52;;;;;;;2.73;0.83;;;;;;;9.97;100.00;93540.19;5041849;28;20202;-85
2024/04/01 01:58:19;;;;;;;3.23;0.70;;;;;;;9.96;100.00;93533.38;5046542;28;20264;-88
2024/04/01 02:00:46;;;;;;;2.20;0.60;;;;;;;9.86;100.00;93544.66;5037207;28;20205;-87
2024/04/01 02:03:12;;;;;;;0.80;0.40;;;;;;;9.97;100.00;93542.81;5037735;28;20198;-87
2024/04/01 02:05:40;;;;;;;2.00;0.80;;;;;;;9.93;100.00;93547.81;5038232;28;20197;-87
2024/04/01 02:08:06;;;;;;;1.70;0.50;;;;;;;10.08;100.00;93533.88;5038795;28;20631;-87
2024/04/01 02:10:35;;;;;;;3.97;0.70;;;;;;;9.97;100.00;93512.06;5037052;28;20194;-87
2024/04/01 02:13:02;;;;;;;3.80;0.77;;;;;;;9.96;100.00;93486.03;5036467;28;20630;-87
2024/04/01 02:15:30;;;;;;;2.30;0.97;;;;;;;10.04;100.00;93465.22;5036528;28;20209;-87
2024/04/01 02:17:56;;;;;;;3.00;0.83;;;;;;;9.87;100.00;93445.56;5036919;28;20210;-87
2024/04/01 02:20:23;;;;;;;0.47;0.47;;;;;;;9.72;100.00;93443.75;5038374;28;20186;-87
2024/04/01 02:22:48;;;;;;;3.73;0.80;;;;;;;9.74;100.00;93454.78;5036710;28;20608;-87
2024/04/01 02:25:17;;;;;;;1.73;0.90;;;;;;;9.82;100.00;93483.16;5036264;28;20190;-88
2024/04/01 02:27:43;;;;;;;2.60;0.70;;;;;;;9.95;100.00;93508.91;5036308;28;20664;-87
2024/04/01 02:30:10;;;;;;;0.97;0.53;;;;;;;9.89;100.00;93503.91;5038019;28;20185;-87
2024/04/01 02:32:37;;;;;;;5.13;1.63;;;;;;;9.90;100.00;93508.91;5038009;28;20194;-87
2024/04/01 02:35:05;;;;;;;4.83;1.10;;;;;;;9.80;100.00;93519.44;5035482;28;20194;-87
2024/04/01 02:37:30;;;;;;;1.03;0.57;;;;;;;9.70;100.00;93493.97;5037888;28;20241;-87
2024/04/01 02:39:57;;;;;;;1.93;0.60;;;;;;;9.61;100.00;93492.88;5037801;28;20223;-87
2024/04/01 02:42:23;;;;;;;1.83;0.70;;;;;;;9.69;100.00;93483.69;5036641;28;20252;-87
2024/04/01 02:44:50;;;;;;;4.83;1.10;;;;;;;9.62;100.00;93475.28;5035684;28;20194;-87
2024/04/01 02:47:15;;;;;;;1.87;0.53;;;;;;;9.66;100.00;93463.97;5037890;28;20214;-87
2024/04/01 02:49:44;;;;;;;2.03;0.63;;;;;;;9.61;100.00;93465.84;5036549;28;20228;-87
2024/04/01 02:52:09;;;;;;;4.20;0.83;;;;;;;9.65;100.00;93482.66;5037935;28;20198;-88
2024/04/01 02:54:36;;;;;;;4.33;0.80;;;;;;;9.65;100.00;93482.66;5035627;28;20257;-87
2024/04/01 02:57:03;;;;;;;2.70;0.73;;;;;;;9.62;100.00;93475.28;5036310;28;20210;-87
2024/04/01 02:59:30;;;;;;;2.33;0.80;;;;;;;9.61;100.00;93481.59;5036774;28;20202;-87
2024/04/01 03:01:56;;;;;;;2.07;1.10;;;;;;;9.68;100.00;93471.63;5036196;28;20201;-88
2024/04/01 03:04:23;;;;;;;1.17;0.70;;;;;;;9.68;100.00;93472.38;5038029;28;20178;-87
2024/04/01 03:06:50;;;;;;;0.87;0.50;;;;;;;9.64;100.00;93476.59;5036520;28;20701;-87
2024/04/01 03:09:17;;;;;;;2.10;0.57;;;;;;;9.73;100.00;93464.50;5038072;28;20549;-88
2024/04/01 03:11:42;;;;;;;2.77;0.70;;;;;;;9.61;100.00;93444.81;5036734;28;20301;-87
2024/04/01 03:14:10;;;;;;;3.13;0.67;;;;;;;9.53;100.00;93440.09;5037229;28;20580;-87
2024/04/01 03:16:36;;;;;;;2.93;0.80;;;;;;;9.64;100.00;93442.44;5040130;28;20236;-88
2024/04/01 03:19:03;;;;;;;3.07;0.67;;;;;;;9.62;100.00;93465.56;5041540;28;20674;-88
2024/04/01 03:21:29;;;;;;;1.23;0.63;;;;;;;9.61;100.00;93471.88;5041466;28;20201;-87
2024/04/01 03:23:58;;;;;;;3.73;0.80;;;;;;;9.73;100.00;93461.09;5041361;28;20190;-87
2024/04/01 03:26:24;;;;;;;2.73;0.80;;;;;;;9.58;100.00;93467.16;5041418;28;20214;-88
2024/04/01 03:28:51;;;;;;;2.93;0.60;;;;;;;9.71;100.00;93457.94;5041388;28;20579;-87
2024/04/01 03:31:17;;;;;;;1.80;0.50;;;;;;;9.69;100.00;93471.34;5041827;28;20191;-87
2024/04/01 03:33:44;;;;;;;1.60;0.70;;;;;;;9.52;100.00;93470.06;5042764;28;20190;-87
2024/04/01 03:36:10;;;;;;;3.03;0.97;;;;;;;9.54;100.00;93489.75;5043458;28;20209;-88
2024/04/01 03:38:37;;;;;;;3.00;0.53;;;;;;;9.63;100.00;93493.44;5041541;28;20189;-87
2024/04/01 03:41:05;;;;;;;3.07;1.00;;;;;;;9.65;100.00;93491.31;5043023;28;20547;-88
2024/04/01 03:43:31;;;;;;;4.40;0.73;;;;;;;9.74;100.00;93488.94;5041986;28;20221;-88
2024/04/01 03:45:59;;;;;;;1.97;0.80;;;;;;;9.74;100.00;93488.94;5041218;28;20194;-87
2024/04/01 03:48:25;;;;;;;3.23;0.60;;;;;;;9.80;100.00;93492.38;5043279;28;20634;-87
2024/04/01 03:50:51;;;;;;;1.43;0.67;;;;;;;9.89;100.00;93477.63;5043890;28;20194;-88
2024/04/01 03:53:17;;;;;;;0.87;0.50;;;;;;;9.82;100.00;93482.38;5043501;28;20186;-88
2024/04/01 03:55:44;;;;;;;7.27;0.77;;;;;;;9.91;100.00;93478.16;5041752;28;20217;-88
2024/04/01 03:58:12;;;;;;;3.43;0.80;;;;;;;10.04;100.00;93469.69;5044107;28;20206;-88
2024/04/01 04:00:39;;;;;;;2.80;1.10;;;;;;;10.09;100.00;93448.66;5044382;28;20244;-88
2024/04/01 04:03:07;;;;;;;1.63;0.50;;;;;;;10.05;100.00;93447.63;5042334;28;20206;-87
2024/04/01 04:05:34;;;;;;;3.17;0.70;;;;;;;9.93;100.00;93470.78;5045462;28;20194;-86
2024/04/01 04:08:01;;;;;;;1.80;0.70;;;;;;;9.95;100.00;93448.44;5054827;28;20223;-85
2024/04/01 04:10:28;;;;;;;1.93;0.83;;;;;;;9.97;100.00;93435.00;5045141;28;20202;-88
2024/04/01 04:12:54;;;;;;;1.00;0.60;;;;;;;9.96;100.00;93447.38;5039743;28;20198;-88
2024/04/01 04:15:22;;;;;;;1.20;0.57;;;;;;;9.92;100.00;93448.94;5040479;28;20522;-88
2024/04/01 04:17:48;;;;;;;1.20;0.80;;;;;;;9.89;100.00;93452.13;5041363;28;20572;-87
2024/04/01 04:20:15;;;;;;;3.00;0.60;;;;;;;9.95;100.00;93458.94;5039740;28;20201;-87
2024/04/01 04:22:41;;;;;;;2.50;0.80;;;;;;;9.95;100.00;93473.94;5039752;28;20198;-87
2024/04/01 04:25:08;;;;;;;1.27;0.80;;;;;;;9.86;100.00;93471.06;5040983;28;20186;-88
2024/04/01 04:27:34;;;;;;;1.90;0.60;;;;;;;9.90;100.00;93461.59;5039156;28;20210;-88
2024/04/01 04:30:00;;;;;;;0.70;0.50;;;;;;;9.71;100.00;93468.44;5038939;28;20252;-87
2024/04/01 04:32:27;;;;;;;3.77;0.90;;;;;;;9.82;100.00;93479.75;5041051;28;20190;-88
2024/04/01 04:34:54;;;;;;;4.93;0.97;;;;;;;9.63;100.00;93466.38;5038764;28;20194;-87
2024/04/01 04:37:20;;;;;;;0.60;0.50;;;;;;;9.73;100.00;93477.63;5039042;28;20237;-88
2024/04/01 04:39:47;;;;;;;2.67;0.77;;;;;;;9.63;100.00;93511.84;5041258;28;20662;-88
2024/04/01 04:42:13;;;;;;;2.13;0.80;;;;;;;9.79;100.00;93514.44;5039213;28;20194;-87
2024/04/01 04:44:42;;;;;;;4.07;0.50;;;;;;;9.87;100.00;93501.53;5040280;28;20554;-88
2024/04/01 04:47:08;;;;;;;2.60;0.90;;;;;;;9.85;100.00;93516.78;5039074;28;20233;-88
2024/04/01 04:49:36;;;;;;;1.63;0.60;;;;;;;9.74;100.00;93525.75;5039570;28;20190;-87
2024/04/01 04:52:02;;;;;;;3.13;0.73;;;;;;;9.68;100.00;93537.31;5039571;28;20268;-87
2024/04/01 04:54:30;;;;;;;2.23;0.47;;;;;;;9.60;100.00;93524.69;5039042;28;20182;-88
2024/04/01 04:56:55;;;;;;;3.23;0.70;;;;;;;9.57;100.00;93539.16;5039828;28;20309;-87
2024/04/01 04:59:22;;;;;;;2.60;0.77;;;;;;;9.61;100.00;93566.47;5039658;28;20202;-88
2024/04/01 05:01:48;;;;;;;2.27;0.83;;;;;;;9.60;100.00;93591.19;5039036;28;20194;-88
2024/04/01 05:04:15;;;;;;;1.33;0.50;;;;;;;9.56;100.00;93613.00;5041088;28;20178;-87
2024/04/01 05:06:42;;;;;;;3.33;1.00;;;;;;;9.61;100.00;93607.75;5039530;28;20617;-88
2024/04/01 05:09:10;;;;;;;2.40;0.67;;;;;;;9.53;100.00;93587.22;5039716;28;20224;-88
2024/04/01 05:11:35;;;;;;;2.67;0.87;;;;;;;9.61;100.00;93584.09;5039272;28;20244;-87
2024/04/01 05:14:03;;;;;;;2.97;0.63;;;;;;;9.61;100.00;93581.47;5038793;28;20190;-87
2024/04/01 05:16:29;;;;;;;1.00;0.73;;;;;;;9.59;100.00;93601.97;5038698;28;20220;-88
2024/04/01 05:18:55;;;;;;;1.03;0.80;;;;;;;9.52;100.00;93604.81;5039155;28;20769;-88
2024/04/01 05:21:22;;;;;;;1.43;0.57;;;;;;;9.47;100.00;93610.09;5040527;28;20242;-88
2024/04/01 05:23:52;;;;;;;2.27;0.60;;;;;;;9.58;100.00;93613.50;5039176;28;20222;-88
2024/04/01 05:26:19;;;;;;;1.07;0.40;;;;;;;9.63;100.00;93642.44;5040301;28;20229;-88
2024/04/01 05:28:45;;;;;;;0.37;0.30;;;;;;;9.75;100.00;93645.63;5038676;28;20267;-88
2024/04/01 05:31:11;;;;;;;3.30;0.60;;;;;;;9.82;100.00;93654.03;5038863;28;20194;-88
2024/04/01 05:33:38;;;;;;;0.93;0.40;;;;;;;9.81;100.00;93656.91;5037832;28;20201;-88
2024/04/01 05:36:05;;;;;;;1.50;0.57;;;;;;;9.73;100.00;93626.69;5039661;28;20190;-87
2024/04/01 05:38:32;;;;;;;1.03;0.40;;;;;;;9.73;100.00;93634.59;5038707;28;20716;-87
2024/04/01 05:40:59;;;;;;;3.10;0.50;;;;;;;9.76;100.00;93631.41;5038303;28;20194;-87
2024/04/01 05:43:26;;;;;;;0.50;0.40;;;;;;;9.70;100.00;93654.28;5039903;28;20186;-87
2024/04/01 05:45:52;;;;;;;1.67;0.70;;;;;;;9.80;100.00;93650.88;5039589;28;20190;-87
2024/04/01 05:48:18;;;;;;;1.10;0.50;;;;;;;9.84;100.00;93661.66;5039206;28;20222;-88
2024/04/01 05:50:50;;;;;;;4.00;0.73;;;;;;;9.82;100.00;93656.66;5039284;28;20191;-87
2024/04/01 05:53:17;;;;;;;1.60;0.73;;;;;;;9.98;100.00;93653.00;5039151;28;20753;-87
2024/04/01 05:55:43;;;;;;;1.87;1.00;;;;;;;10.07;100.00;93640.13;5037507;28;20252;-87
2024/04/01 05:58:11;;;;;;;1.43;0.60;;;;;;;9.91;100.00;93628.81;5037134;28;20681;-88
2024/04/01 06:00:37;;;;;;;3.93;1.00;;;;;;;9.70;100.00;93609.59;5037569;28;20650;-87
2024/04/01 06:03:05;;;;;;;0.60;0.40;;;;;;;9.53;100.00;93595.13;5039144;28;20204;-88
2024/04/01 06:05:31;;;;;;;6.30;1.00;;;;;;;9.67;100.00;93611.94;5035944;28;20229;-88
2024/04/01 06:07:58;;;;;;;4.53;0.60;;;;;;;9.50;100.00;93627.94;5039674;28;20221;-88
2024/04/01 06:10:24;;;;;;;4.93;1.17;;;;;;;9.67;100.00;93643.50;5037908;28;20202;-87
2024/04/01 06:12:52;;;;;;;2.27;0.80;;;;;;;9.70;100.00;93659.53;5038360;28;20245;-88
2024/04/01 06:15:19;;;;;;;4.63;1.70;;;;;;;9.73;100.00;93672.16;5038859;28;20230;-88
2024/04/01 06:17:46;;;;;;;3.67;2.00;;;;;;;9.51;100.00;93699.69;5038249;28;20217;-88
2024/04/01 06:20:12;;;;;;;5.53;1.70;;;;;;;9.53;100.00;93700.22;5039613;28;20198;-88
2024/04/01 06:22:39;;;;;;;2.93;1.20;;;;;;;9.34;100.00;93710.41;5039524;28;20209;-88
2024/04/01 06:25:06;;;;;;;0.93;0.80;;;;;;;9.43;100.00;93734.31;5039471;28;20187;-87
2024/04/01 06:27:33;;;;;;;1.03;0.70;;;;;;;9.41;100.00;93757.44;5038013;28;20214;-87
2024/04/01 06:29:59;;;;;;;3.07;1.07;;;;;;;9.46;100.00;93736.44;5037573;28;20218;-87
2024/04/01 06:32:27;;;;;;;3.03;1.20;;;;;;;9.62;100.00;93746.78;5038326;28;20256;-88
2024/04/01 06:34:53;;;;;;;1.63;0.90;;;;;;;9.46;100.00;93744.34;5037693;28;20190;-87
2024/04/01 06:37:20;;;;;;;4.63;1.37;;;;;;;9.60;100.00;93761.22;5037788;28;20693;-87
2024/04/01 06:39:46;;;;;;;1.90;1.70;;;;;;;9.65;100.00;93748.91;5041436;28;20190;-88
2024/04/01 06:42:12;;;;;;;2.90;1.67;;;;;;;9.72;100.00;93754.69;5040937;28;20549;-88
2024/04/01 06:44:38;;;;;;;4.00;1.57;;;;;;;9.61;100.00;93774.09;5038735;28;20198;-88
2024/04/01 06:47:05;;;;;;;5.07;1.27;;;;;;;9.53;100.00;93758.03;5038399;28;20221;-88
2024/04/01 06:49:33;;;;;;;2.53;1.07;;;;;;;9.55;100.00;93754.09;5038103;28;20260;-88
2024/04/01 06:51:59;;;;;;;1.37;1.00;;;;;;;9.74;100.00;93765.75;5039239;28;20194;-88
2024/04/01 06:54:25;;;;;;;0.97;0.60;;;;;;;9.62;100.00;93765.16;5039796;28;20194;-88
2024/04/01 06:56:52;;;;;;;2.50;0.60;;;;;;;9.56;100.00;93754.91;5039306;28;20747;-88
2024/04/01 06:59:18;;;;;;;3.33;0.70;;;;;;;9.55;100.00;93750.69;5039517;28;20191;-87
2024/04/01 07:01:45;;;;;;;2.23;0.70;;;;;;;9.49;100.00;93747.25;5039882;28;20620;-88
2024/04/01 07:04:11;;;;;;;1.90;0.70;;;;;;;9.50;100.00;93750.66;5039632;28;20651;-88
2024/04/01 07:06:40;;;;;;;0.57;0.57;;;;;;;9.43;100.00;93752.72;5040774;28;20257;-88
2024/04/01 07:09:06;;;;;;;1.10;0.63;;;;;;;9.33;100.00;93765.81;5040020;28;20217;-88
2024/04/01 07:11:33;;;;;;;0.70;0.50;;;;;;;9.34;100.00;93770.03;5039496;28;20305;-88
2024/04/01 07:13:59;;;;;;;0.67;0.30;;;;;;;9.45;100.00;93764.56;5041249;28;20267;-88
2024/04/01 07:16:26;;;;;;;3.17;0.60;;;;;;;9.34;100.00;93757.69;5041858;28;20694;-88
2024/04/01 07:18:52;;;;;;;0.27;0.27;;;;;;;9.29;100.00;93765.53;5046389;28;20190;-88
2024/04/01 07:21:18;;;;;;;1.13;0.33;;;;;;;9.45;100.00;93792.69;5037115;28;20731;-87
2024/04/01 07:23:46;;;;;;;0.30;0.20;;;;;;;9.71;100.00;93797.78;5043094;28;20194;-88
2024/04/01 07:26:13;;;;;;;0.57;0.43;;;;;;;9.76;100.00;93804.91;5053407;28;20169;-87
2024/04/01 07:28:39;;;;;;;0.40;0.40;;;;;;;9.66;100.00;93805.66;5056448;28;20248;-86
2024/04/01 07:31:06;;;;;;;0.17;0.17;;;;;;;9.59;100.00;93797.22;5038887;28;20635;-88
2024/04/01 07:33:32;;;;;;;1.50;0.30;;;;;;;9.59;100.00;93801.69;5036181;28;20183;-88
2024/04/01 07:35:59;;;;;;;2.23;0.30;;;;;;;9.63;100.00;93821.16;5035786;28;20197;-88
2024/04/01 07:38:24;;;;;;;1.07;0.30;;;;;;;9.73;100.00;93827.25;5034351;28;20206;-89
2024/04/01 07:40:53;;;;;;;0.83;0.17;;;;;;;9.64;100.00;93836.66;5035397;28;20198;-88
2024/04/01 07:43:19;;;;;;;0.60;0.10;;;;;;;9.70;100.00;93835.66;5036130;28;20187;-89
2024/04/01 07:45:46;;;;;;;0.93;0.10;;;;;;;9.68;100.00;93853.50;5035011;28;20189;-89
2024/04/01 07:48:11;;;;;;;0.33;0.27;;;;;;;9.53;100.00;93863.13;5034631;28;20566;-88
2024/04/01 07:50:38;;;;;;;0.30;0.30;;;;;;;9.62;100.00;93874.75;5035244;28;20195;-88
2024/04/01 07:53:04;;;;;;;0.93;0.40;;;;;;;9.67;100.00;93882.66;5036662;28;20241;-89
2024/04/01 07:55:31;;;;;;;2.33;1.20;;;;;;;9.62;100.00;93893.16;5035281;28;20228;-88
2024/04/01 07:57:58;;;;;;;3.93;2.17;;;;;;;9.51;100.00;93907.28;5035923;28;20268;-88
2024/04/01 08:00:25;;;;;;;2.47;1.70;;;;;;;9.43;100.00;93921.66;5034947;28;20198;-88
2024/04/01 08:02:51;;;;;;;0.90;0.37;;;;;;;9.17;100.00;93927.75;5037603;28;20217;-87
2024/04/01 08:05:18;;;;;;;0.63;0.50;;;;;;;9.16;100.00;93939.31;5037720;28;20664;-87
2024/04/01 08:07:43;;;;;;;0.90;0.77;;;;;;;9.18;100.00;93942.50;5037022;28;20244;-86
2024/04/01 08:10:10;;;;;;;1.00;0.50;;;;;;;9.20;100.00;93950.13;5038827;28;20195;-87
2024/04/01 08:12:36;;;;;;;0.10;0.10;;;;;;;9.12;100.00;93942.72;5037562;28;20192;-87
2024/04/01 08:15:05;;;;;;;0.50;0.50;;;;;;;9.20;100.00;93934.34;5038426;28;20232;-87
2024/04/01 08:17:32;;;;;;;2.17;0.60;;;;;;;9.30;100.00;93939.69;5036461;28;20218;-87
2024/04/01 08:19:59;;;;;;;1.43;0.50;;;;;;;9.19;100.00;93943.28;5036328;28;20190;-87
2024/04/01 08:22:25;;;;;;;0.30;0.30;;;;;;;9.16;100.00;93938.53;5017028;28;20249;-86
2024/04/01 08:24:51;;;;;;;0.50;0.30;;;;;;;9.25;100.00;93950.16;5017071;28;20195;-87
2024/04/01 08:27:17;;;;;;;1.00;0.60;;;;;;;9.39;100.00;93952.13;5016549;28;20587;-87
2024/04/01 08:29:44;;;;;;;0.40;0.40;;;;;;;9.37;100.00;93956.84;5025192;28;20222;-87
2024/04/01 08:32:11;;;;;;;0.40;0.40;;;;;;;9.39;100.00;93960.00;5036086;28;20190;-87
2024/04/01 08:34:38;;;;;;;0.50;0.50;;;;;;;9.33;100.00;93952.34;5035254;28;20186;-86
2024/04/01 08:37:04;;;;;;;0.17;0.17;;;;;;;9.16;100.00;93970.84;5036492;28;20221;-87
2024/04/01 08:39:32;;;;;;;0.30;0.23;;;;;;;9.29;100.00;93967.78;5038188;28;20190;-87
2024/04/01 08:42:00;;;;;;;0.40;0.40;;;;;;;9.28;100.00;93976.75;5036455;28;20285;-87
2024/04/01 08:44:27;;;;;;;0.20;0.20;;;;;;;9.35;100.00;93979.16;5036223;28;20190;-87
2024/04/01 08:46:53;;;;;;;0.93;0.40;;;;;;;9.15;100.00;93986.88;5036636;28;20268;-87
2024/04/01 08:49:31;;;;;;;0.80;0.20;;;;;;;9.10;100.00;93984.19;5038251;28;20221;-87
2024/04/01 08:51:56;;;;;;;0.23;0.20;;;;;;;9.02;100.00;93994.09;5036593;28;20240;-86
2024/04/01 08:54:23;;;;;;;0.20;0.20;;;;;;;9.13;100.00;93991.53;5035764;28;20198;-87
2024/04/01 08:56:49;;;;;;;0.30;0.20;;;;;;;9.15;100.00;93989.50;5036179;28;20206;-87
2024/04/01 08:59:17;;;;;;;2.67;0.50;;;;;;;9.13;100.00;93987.09;5039518;28;20190;-87
2024/04/01 09:01:42;;;;;;;0.37;0.37;;;;;;;9.21;100.00;93989.28;5037426;28;20191;-87
2024/04/01 09:04:10;;;;;;;0.30;0.20;;;;;;;9.21;100.00;93983.22;5030799;28;20269;-87
2024/04/01 09:06:37;;;;;;;0.67;0.20;;;;;;;9.16;100.00;93983.97;5033652;28;20222;-86
2024/04/01 09:09:04;;;;;;;0.30;0.30;;;;;;;9.10;100.00;93989.44;5034186;28;20237;-86
2024/04/01 09:11:30;;;;;;;0.30;0.30;;;;;;;9.16;100.00;93988.44;5033146;28;20627;-86
2024/04/01 09:13:57;;;;;;;0.30;0.30;;;;;;;9.18;100.00;93999.47;5031973;28;20194;-87
2024/04/01 09:16:23;;;;;;;1.37;0.67;;;;;;;9.22;100.00;93995.34;5032719;28;20693;-87
2024/04/01 09:18:50;;;;;;;0.40;0.40;;;;;;;9.38;100.00;93994.44;5035597;28;20186;-86
2024/04/01 09:21:17;;;;;;;0.50;0.30;;;;;;;9.49;100.00;94001.34;5035786;28;20236;-86
2024/04/01 09:23:46;;;;;;;0.53;0.40;;;;;;;9.62;100.00;94003.53;5033423;28;20190;-85
2024/04/01 09:26:12;;;;;;;0.93;0.37;;;;;;;9.57;100.00;94004.28;5036672;28;20654;-86
2024/04/01 09:28:39;;;;;;;2.33;0.73;;;;;;;9.62;100.00;94022.75;5036115;28;20213;-87
2024/04/01 09:31:05;;;;;;;0.93;0.83;;;;;;;9.51;100.00;94036.03;5033145;28;20308;-86
2024/04/01 09:33:31;;;;;;;1.87;1.00;;;;;;;9.61;100.00;94057.16;5034360;28;20211;-88
2024/04/01 09:35:57;;;;;;;1.30;0.93;;;;;;;9.70;100.00;94051.19;5032954;28;20194;-87
2024/04/01 09:38:24;;;;;;;2.43;1.50;;;;;;;9.44;100.00;94059.09;5035615;28;20242;-88
2024/04/01 09:40:52;;;;;;;3.83;2.00;;;;;;;9.28;100.00;94060.00;5035824;28;20666;-88
2024/04/01 09:43:24;;;;;;;4.37;2.53;;;;;;;9.44;100.00;94056.47;5033017;28;20198;-88
2024/04/01 09:45:51;;;;;;;1.37;1.10;;;;;;;9.46;100.00;94068.31;5032323;28;20823;-88
2024/04/01 09:48:18;;;;;;;1.03;0.50;;;;;;;9.27;100.00;94072.34;5030632;28;20690;-87
2024/04/01 09:50:44;;;;;;;1.13;0.80;;;;;;;9.22;100.00;94074.91;5035924;28;20222;-88
2024/04/01 09:53:11;;;;;;;0.63;0.63;;;;;;;9.22;100.00;94079.38;5036131;28;20201;-88
2024/04/01 09:55:42;;;;;;;0.40;0.40;;;;;;;9.01;100.00;94079.16;5032560;28;20678;-87
2024/04/01 09:58:23;;;;;;;0.30;0.30;;;;;;;9.05;100.00;94089.97;5035344;28;20216;-86
2024/04/01 10:00:50;;;;;;;0.60;0.30;;;;;;;8.93;100.00;94100.59;5035476;28;20199;-86
2024/04/01 10:03:52;;;;;;;1.37;0.63;;;;;;;8.94;100.00;94107.41;5035851;28;20202;-85
2024/04/01 10:06:54;;;;;;;0.40;0.30;;;;;;;8.94;100.00;94104.78;5031610;28;20747;-85
2024/04/01 10:09:50;;;;;;;0.70;0.53;;;;;;;8.99;100.00;94101.44;5036845;28;20656;-85
2024/04/01 10:12:42;;;;;;;0.73;0.50;;;;;;;9.13;100.00;94104.47;5037006;28;20194;-85
2024/04/01 10:15:36;;;;;;;0.60;0.30;;;;;;;9.27;100.00;94103.06;5039547;28;20186;-85
2024/04/01 10:18:02;;;;;;;1.47;0.70;;;;;;;9.54;100.00;94107.31;5038634;28;20218;-85
2024/04/01 10:21:05;;;;;;;0.40;0.30;;;;;;;9.40;100.00;94110.56;5039576;28;20197;-86
2024/04/01 10:24:08;;;;;;;0.53;0.40;;;;;;;9.31;100.00;94119.94;5004893;28;20229;-85
2024/04/01 10:26:53;;;;;;;0.23;0.23;;;;;;;9.41;100.00;94139.22;5021972;28;20293;-86
2024/04/01 10:29:57;;;;;;;0.20;0.20;;;;;;;9.46;100.00;94133.22;5039205;28;20634;-86
2024/04/01 10:32:52;;;;;;;0.20;0.10;;;;;;;9.43;98.38;94145.00;5050909;28;20200;-84
2024/04/01 10:35:32;;;;;;;1.00;0.17;;;;;;;9.41;98.96;94154.19;5045176;28;20544;-85
2024/04/01 10:38:16;;;;;;;0.10;0.10;;;;;;;9.51;98.03;94162.19;5035722;28;20224;-85
2024/04/01 10:41:25;;;;;;;2.50;1.90;;;;;;;9.32;96.94;94172.22;5037136;28;20201;-86
2024/04/01 10:44:32;;;;;;;0.20;0.10;;;;;;;9.18;96.21;94204.34;5035325;28;20195;-85
2024/04/01 10:47:07;;;;;;;0.10;0.10;;;;;;;9.34;97.80;94203.50;4979164;28;20215;-86
2024/04/01 10:50:00;;;;;;;0.10;0.10;;;;;;;9.14;97.15;94206.69;4979337;28;20634;-86
2024/04/01 10:53:03;;;;;;;0.10;0.10;;;;;;;9.11;97.69;94220.28;5016629;28;20206;-86
2024/04/01 10:56:08;;;;;;;0.30;0.20;;;;;;;8.92;98.28;94237.34;4978185;28;20199;-86
2024/04/01 10:59:03;;;;;;;1.07;0.33;;;;;;;9.01;99.02;94231.44;4967887;28;20203;-85
2024/04/01 11:01:40;;;;;;;0.10;0.10;;;;;;;8.86;96.79;94241.75;5035927;28;20182;-86
2024/04/01 11:04:34;;;;;;;0.33;0.10;;;;;;;8.95;96.38;94248.19;5036263;28;20248;-86
2024/04/01 11:07:12;;;;;;;0.00;0.00;;;;;;;9.16;96.85;94254.50;5037485;28;20222;-86
2024/04/01 11:09:55;;;;;;;0.00;0.00;;;;;;;9.27;97.02;94258.84;5036214;28;20264;-85
2024/04/01 11:12:27;;;;;;;0.10;0.10;;;;;;;9.56;97.81;94276.06;5037167;28;20240;-85
2024/04/01 11:14:54;;;;;;;0.10;0.10;;;;;;;9.41;95.08;94278.47;5035811;28;20233;-85
2024/04/01 11:17:21;;;;;;;0.53;0.10;;;;;;;9.46;95.47;94296.94;5035088;28;20217;-85
2024/04/01 11:20:15;;;;;;;0.40;0.10;;;;;;;9.54;93.81;94299.16;5035922;28;20256;-85
2024/04/01 11:23:01;;;;;;;0.03;0.03;;;;;;;9.82;94.29;94305.28;5029183;28;20232;-88
2024/04/01 11:25:31;;;;;;;0.10;0.10;;;;;;;9.63;92.15;94307.41;5034223;28;20626;-87
2024/04/01 11:28:07;;;;;;;0.00;0.00;;;;;;;9.32;92.89;94324.59;5034894;28;20229;-88
2024/04/01 11:30:34;;;;;;;0.43;0.10;;;;;;;9.28;92.10;94315.63;5036197;28;20304;-87
2024/04/01 11:33:04;;;;;;;0.00;0.00;;;;;;;9.29;92.97;94321.69;5034946;28;20563;-87
2024/04/01 11:35:42;;;;;;;0.10;0.10;;;;;;;9.27;92.70;94335.03;5035318;28;20313;-87
2024/04/01 11:38:20;;;;;;;0.00;0.00;;;;;;;9.47;93.00;94330.09;5037648;28;20241;-87
2024/04/01 11:40:46;;;;;;;0.10;0.00;;;;;;;9.64;92.37;94328.19;5039218;28;20193;-88